Time;durP1;ratioP1;P1;durP2;ratioP2;P2;SDS_P1;SDS_P2;PMS_P1;PMS_P2;Temp;Humidity;BMP_temperature;BMP_pressure;BME280_temperature;BME280_humidity;BME280_pressure;Samples;Min_cycle;Max_cycle;Signal;HPM_P1;HPM_P2
2023/06/26 00:01:56;;;;;;;11.80;9.90;;;21.80;99.90;;;;;;5128810;28;20508;-57
2023/06/26 00:04:24;;;;;;;9.73;8.23;;;22.00;99.90;;;;;;5134017;28;20432;-57
2023/06/26 00:06:51;;;;;;;9.63;8.07;;;21.60;99.90;;;;;;5132405;28;20445;-57
2023/06/26 00:09:18;;;;;;;13.93;9.10;;;;;;;;;;5133223;28;20448;-57
2023/06/26 00:11:46;;;;;;;12.10;8.37;;;;;;;;;;5132408;28;20461;-56
2023/06/26 00:14:13;;;;;;;10.53;8.30;;;22.10;99.90;;;;;;5137221;28;20526;-58
2023/06/26 00:16:40;;;;;;;14.53;9.57;;;;;;;;;;5132853;28;20487;-57
2023/06/26 00:19:08;;;;;;;10.63;9.43;;;21.90;99.90;;;;;;5132443;28;20464;-59
2023/06/26 00:21:36;;;;;;;12.70;10.30;;;22.10;99.90;;;;;;5136602;28;20471;-55
2023/06/26 00:24:03;;;;;;;14.70;8.33;;;;;;;;;;5134507;28;20562;-61
2023/06/26 00:26:30;;;;;;;12.90;9.00;;;;;;;;;;5138513;27;20483;-55
2023/06/26 00:28:57;;;;;;;10.90;9.23;;;;;;;;;;5153044;27;20456;-55
2023/06/26 00:31:24;;;;;;;11.80;9.20;;;21.60;99.90;;;;;;5158670;27;20435;-55
2023/06/26 00:33:51;;;;;;;13.30;11.90;;;21.40;99.90;;;;;;5154927;27;20487;-57
2023/06/26 00:36:18;;;;;;;15.83;10.50;;;;;;;;;;5155509;27;20474;-57
2023/06/26 00:38:46;;;;;;;12.17;10.87;;;21.40;99.90;;;;;;5153364;27;20463;-57
2023/06/26 00:41:13;;;;;;;12.93;10.47;;;;;;;;;;5154307;27;20443;-53
2023/06/26 00:43:41;;;;;;;12.20;10.30;;;;;;;;;;5158681;27;20486;-54
2023/06/26 00:46:11;;;;;;;13.57;10.40;;;21.70;99.90;;;;;;5155501;27;20474;-57
2023/06/26 00:48:38;;;;;;;12.20;10.33;;;;;;;;;;5152915;27;20446;-58
2023/06/26 00:51:05;;;;;;;13.17;10.53;;;21.60;99.90;;;;;;5153835;27;20487;-58
2023/06/26 00:53:32;;;;;;;12.03;10.80;;;;;;;;;;5152375;27;20428;-55
2023/06/26 00:56:01;;;;;;;14.20;9.40;;;21.10;99.90;;;;;;5153192;27;20521;-55
2023/06/26 00:58:28;;;;;;;11.73;10.00;;;;;;;;;;5152815;27;20519;-58
2023/06/26 01:00:56;;;;;;;15.33;10.77;;;21.60;99.90;;;;;;5143190;27;20487;-53
2023/06/26 01:03:24;;;;;;;15.30;10.50;;;21.90;99.90;;;;;;5137729;28;20555;-54
2023/06/26 01:05:53;;;;;;;13.30;9.90;;;21.50;99.90;;;;;;5132689;28;20448;-55
2023/06/26 01:08:21;;;;;;;12.17;10.00;;;;;;;;;;5138038;28;20460;-55
2023/06/26 01:10:48;;;;;;;12.20;10.80;;;;;;;;;;5135729;28;20471;-56
2023/06/26 01:13:18;;;;;;;15.47;9.67;;;21.40;99.90;;;;;;5131967;28;20504;-54
2023/06/26 01:15:45;;;;;;;13.00;10.30;;;21.60;99.90;;;;;;5130602;28;20456;-58
2023/06/26 01:18:15;;;;;;;11.27;10.07;;;21.50;99.90;;;;;;5131735;28;20464;-58
2023/06/26 01:20:45;;;;;;;14.23;9.80;;;21.60;99.90;;;;;;5131738;28;20452;-58
2023/06/26 01:23:20;;;;;;;19.30;12.53;;;22.00;99.90;;;;;;5131916;28;20491;-54
2023/06/26 01:26:02;;;;;;;11.93;10.63;;;21.50;99.90;;;;;;5132531;28;20444;-57
2023/06/26 01:28:31;;;;;;;15.13;9.67;;;21.10;99.90;;;;;;5131037;28;20464;-55
2023/06/26 01:30:58;;;;;;;11.43;9.47;;;;;;;;;;5131403;28;20448;-57
2023/06/26 01:33:28;;;;;;;14.30;10.90;;;21.50;99.90;;;;;;5131295;28;20461;-55
2023/06/26 01:35:55;;;;;;;11.77;10.57;;;;;;;;;;5131543;28;20499;-54
2023/06/26 01:38:23;;;;;;;14.20;11.23;;;21.40;99.90;;;;;;5132194;28;20456;-49
2023/06/26 01:40:50;;;;;;;14.00;11.40;;;21.40;99.90;;;;;;5131616;28;20511;-56
2023/06/26 01:43:25;;;;;;;13.20;10.70;;;21.50;99.90;;;;;;5131318;28;20591;-56
2023/06/26 01:45:57;;;;;;;12.43;10.80;;;21.50;99.90;;;;;;5131421;28;20967;-55
2023/06/26 01:48:28;;;;;;;14.87;11.50;;;21.30;99.90;;;;;;5132306;28;20453;-58
2023/06/26 01:50:59;;;;;;;19.50;10.03;;;21.40;99.90;;;;;;5131722;28;20445;-55
2023/06/26 01:53:30;;;;;;;14.80;10.57;;;21.60;99.90;;;;;;5132530;28;20526;-54
2023/06/26 01:56:07;;;;;;;12.87;10.20;;;21.70;99.90;;;;;;5131434;28;20536;-53
2023/06/26 01:58:36;;;;;;;14.83;11.17;;;21.50;99.90;;;;;;5131706;28;20486;-55
2023/06/26 02:01:04;;;;;;;12.17;10.80;;;21.30;99.90;;;;;;5131717;28;20504;-56
2023/06/26 02:03:31;;;;;;;17.03;11.30;;;21.40;99.90;;;;;;5137193;28;20507;-55
2023/06/26 02:05:58;;;;;;;14.90;11.17;;;;;;;;;;5136015;28;20502;-58
2023/06/26 02:08:25;;;;;;;11.77;10.57;;;;;;;;;;5135768;28;20503;-54
2023/06/26 02:10:54;;;;;;;13.70;11.23;;;;;;;;;;5136466;28;20421;-54
2023/06/26 02:13:22;;;;;;;13.00;11.27;;;21.20;99.90;;;;;;5136645;28;20456;-54
2023/06/26 02:15:49;;;;;;;13.07;10.93;;;21.40;99.90;;;;;;5136307;28;20476;-58
2023/06/26 02:18:18;;;;;;;12.27;10.50;;;21.20;99.90;;;;;;5132229;28;20441;-57
2023/06/26 02:20:45;;;;;;;17.30;11.53;;;21.30;99.90;;;;;;5130675;28;20768;-59
2023/06/26 02:23:12;;;;;;;12.17;10.00;;;;;;;;;;5130899;28;20483;-56
2023/06/26 02:25:39;;;;;;;12.20;10.53;;;;;;;;;;5130590;28;20522;-58
2023/06/26 02:28:06;;;;;;;13.70;11.50;;;;;;;;;;5130688;28;20441;-58
2023/06/26 02:30:34;;;;;;;13.73;11.67;;;;;;;;;;5130396;28;20490;-59
2023/06/26 02:33:02;;;;;;;13.07;11.40;;;21.50;99.90;;;;;;5130824;28;20452;-56
2023/06/26 02:35:33;;;;;;;13.47;10.00;;;21.20;99.90;;;;;;5130339;28;20468;-58
2023/06/26 02:38:01;;;;;;;17.63;11.47;;;;;;;;;;5134160;28;20423;-56
2023/06/26 02:40:27;;;;;;;16.00;11.60;;;21.20;99.90;;;;;;5136494;28;20444;-58
2023/06/26 02:42:55;;;;;;;17.87;12.43;;;;;;;;;;5135695;28;20480;-55
2023/06/26 02:45:22;;;;;;;14.07;12.00;;;;;;;;;;5136042;28;20465;-58
2023/06/26 02:47:49;;;;;;;14.30;11.17;;;;;;;;;;5136229;28;20444;-55
2023/06/26 02:50:16;;;;;;;15.10;11.20;;;21.10;99.90;;;;;;5133598;28;20480;-55
2023/06/26 02:52:50;;;;;;;14.93;11.10;;;21.20;99.90;;;;;;5133428;28;20436;-53
2023/06/26 02:55:18;;;;;;;16.80;12.90;;;;;;;;;;5136060;28;20500;-56
2023/06/26 02:57:48;;;;;;;13.00;11.40;;;21.00;99.90;;;;;;5136281;28;20441;-51
2023/06/26 03:00:16;;;;;;;13.73;11.70;;;20.90;99.90;;;;;;5140581;27;20435;-55
2023/06/26 03:02:42;;;;;;;14.63;13.13;;;21.10;99.90;;;;;;5156645;27;20456;-55
2023/06/26 03:05:10;;;;;;;12.87;11.20;;;;;;;;;;5156696;27;20415;-54
2023/06/26 03:07:38;;;;;;;11.43;10.33;;;21.20;99.90;;;;;;5155926;27;20467;-54
2023/06/26 03:10:08;;;;;;;14.30;12.80;;;21.70;99.90;;;;;;5150870;27;20472;-57
2023/06/26 03:12:35;;;;;;;17.17;12.80;;;21.00;99.90;;;;;;5150259;27;20467;-58
2023/06/26 03:15:04;;;;;;;15.33;11.93;;;21.00;99.90;;;;;;5149974;27;20494;-57
2023/06/26 03:17:32;;;;;;;12.40;11.00;;;;;;;;;;5150948;27;20436;-56
2023/06/26 03:19:59;;;;;;;19.73;13.40;;;;;;;;;;5150911;27;20524;-53
2023/06/26 03:22:28;;;;;;;14.60;12.30;;;;;;;;;;5152592;27;20471;-53
2023/06/26 03:24:56;;;;;;;17.33;12.83;;;;;;;;;;5155489;27;20486;-56
2023/06/26 03:27:36;;;;;;;15.43;12.80;;;20.90;99.90;;;;;;5153698;27;20478;-56
2023/06/26 03:30:03;;;;;;;15.77;12.90;;;20.90;99.90;;;;;;5147420;27;20552;-51
2023/06/26 03:32:30;;;;;;;16.53;14.23;;;;;;;;;;5129656;28;21040;-58
2023/06/26 03:34:57;;;;;;;21.57;13.40;;;;;;;;;;5131223;28;20478;-56
2023/06/26 03:37:24;;;;;;;15.70;12.97;;;;;;;;;;5137619;28;20444;-58
2023/06/26 03:39:52;;;;;;;20.13;15.50;;;;;;;;;;5141868;28;20483;-52
2023/06/26 03:42:20;;;;;;;15.37;13.77;;;20.90;99.90;;;;;;5138586;28;20480;-58
2023/06/26 03:44:49;;;;;;;18.77;13.33;;;;;;;;;;5136779;28;20536;-54
2023/06/26 03:47:16;;;;;;;15.10;13.60;;;;;;;;;;5142243;28;20440;-55
2023/06/26 03:49:43;;;;;;;17.80;14.30;;;;;;;;;;5143362;28;20436;-55
2023/06/26 03:52:10;;;;;;;20.20;15.23;;;;;;;;;;5142711;28;20455;-55
2023/06/26 03:54:37;;;;;;;18.20;14.20;;;;;;;;;;5142484;28;20444;-51
2023/06/26 03:57:04;;;;;;;18.53;14.90;;;21.20;99.90;;;;;;5142597;28;20468;-56
2023/06/26 03:59:33;;;;;;;22.80;14.83;;;21.30;99.90;;;;;;5143017;28;20441;-58
2023/06/26 04:02:03;;;;;;;21.00;16.07;;;21.30;99.90;;;;;;5140777;28;20464;-58
2023/06/26 04:04:30;;;;;;;22.50;16.10;;;;;;;;;;5141078;28;20483;-56
2023/06/26 04:06:59;;;;;;;21.37;15.50;;;;;;;;;;5142061;28;20456;-57
2023/06/26 04:09:25;;;;;;;20.60;13.20;;;21.30;99.90;;;;;;5141436;28;20480;-55
2023/06/26 04:11:53;;;;;;;15.10;13.37;;;;;;;;;;5136277;28;20424;-57
2023/06/26 04:14:20;;;;;;;18.20;14.07;;;;;;;;;;5141224;28;20425;-54
2023/06/26 04:16:47;;;;;;;19.73;16.00;;;;;;;;;;5138705;28;20491;-56
2023/06/26 04:19:15;;;;;;;18.80;13.83;;;21.80;99.90;;;;;;5139309;28;20444;-48
2023/06/26 04:21:42;;;;;;;17.30;14.27;;;21.60;99.90;;;;;;5151843;27;20455;-57
2023/06/26 04:24:09;;;;;;;18.80;13.43;;;;;;;;;;5145080;27;20468;-54
2023/06/26 04:26:40;;;;;;;15.13;12.83;;;21.80;99.90;;;;;;5146432;27;20439;-54
2023/06/26 04:29:07;;;;;;;16.60;13.10;;;21.90;99.90;;;;;;5149428;27;20898;-55
2023/06/26 04:31:34;;;;;;;15.43;13.47;;;;;;;;;;5143494;27;20455;-55
2023/06/26 04:34:02;;;;;;;14.57;12.00;;;;;;;;;;5144453;27;20482;-54
2023/06/26 04:36:31;;;;;;;17.37;13.03;;;21.90;99.90;;;;;;5144924;27;20511;-57
2023/06/26 04:39:01;;;;;;;11.97;10.77;;;22.10;99.90;;;;;;5154109;27;20987;-59
2023/06/26 04:41:28;;;;;;;16.30;13.20;;;;;;;;;;5156339;27;20498;-56
2023/06/26 04:43:55;;;;;;;17.50;14.33;;;22.20;99.90;;;;;;5156411;27;20475;-58
2023/06/26 04:46:22;;;;;;;16.33;12.93;;;22.10;99.90;;;;;;5156008;27;20478;-58
2023/06/26 04:48:49;;;;;;;15.17;13.57;;;;;;;;;;5151850;27;20479;-58
2023/06/26 04:51:20;;;;;;;19.30;14.47;;;;;;;;;;5153294;27;20503;-59
2023/06/26 04:53:51;;;;;;;20.40;14.40;;;22.20;99.90;;;;;;5153363;27;20491;-57
2023/06/26 04:56:19;;;;;;;14.93;13.47;;;21.90;99.90;;;;;;5152789;27;20447;-54
2023/06/26 04:58:47;;;;;;;13.87;12.40;;;;;;;;;;5152571;27;20478;-55
2023/06/26 05:01:15;;;;;;;14.63;12.43;;;;;;;;;;5140909;27;20513;-58
2023/06/26 05:03:42;;;;;;;13.83;12.00;;;;;;;;;;5132715;28;20472;-55
2023/06/26 05:06:10;;;;;;;15.30;13.80;;;;;;;;;;5132990;28;20476;-57
2023/06/26 05:08:37;;;;;;;18.30;13.70;;;;;;;;;;5132320;28;20456;-58
2023/06/26 05:11:05;;;;;;;15.97;13.73;;;22.00;99.90;;;;;;5132223;28;20444;-58
2023/06/26 05:13:32;;;;;;;14.33;12.47;;;;;;;;;;5132728;28;20463;-55
2023/06/26 05:15:59;;;;;;;15.67;12.20;;;;;;;;;;5131977;28;20552;-55
2023/06/26 05:18:26;;;;;;;15.50;13.10;;;;;;;;;;5131430;28;20465;-56
2023/06/26 05:20:54;;;;;;;16.50;12.73;;;22.90;99.90;;;;;;5132244;28;20471;-57
2023/06/26 05:23:21;;;;;;;22.60;13.87;;;;;;;;;;5131191;28;20483;-52
2023/06/26 05:25:50;;;;;;;14.57;12.90;;;;;;;;;;5131591;28;20506;-56
2023/06/26 05:28:19;;;;;;;14.90;13.30;;;23.10;99.90;;;;;;5133669;28;20446;-58
2023/06/26 05:30:46;;;;;;;16.73;11.60;;;;;;;;;;5131732;28;20468;-57
2023/06/26 05:33:17;;;;;;;11.57;10.37;;;23.10;99.90;;;;;;5134726;28;20463;-58
2023/06/26 05:35:47;;;;;;;11.73;10.10;;;23.30;99.90;;;;;;5136963;28;20437;-54
2023/06/26 05:38:14;;;;;;;9.93;8.87;;;23.50;99.90;;;;;;5134109;28;20432;-56
2023/06/26 05:40:42;;;;;;;10.33;9.33;;;23.40;99.90;;;;;;5129860;27;20612;-55
2023/06/26 05:43:10;;;;;;;12.50;10.40;;;23.60;99.90;;;;;;5128765;28;20524;-59
2023/06/26 05:45:41;;;;;;;12.53;10.27;;;23.40;99.90;;;;;;5131162;28;20490;-58
2023/06/26 05:48:08;;;;;;;10.83;9.73;;;23.50;99.90;;;;;;5131060;28;20500;-58
2023/06/26 05:50:35;;;;;;;13.70;9.93;;;23.60;99.90;;;;;;5135635;27;20496;-58
2023/06/26 05:53:03;;;;;;;11.63;10.40;;;23.50;99.90;;;;;;5150778;27;20468;-58
2023/06/26 05:55:31;;;;;;;11.20;9.93;;;;;;;;;;5133711;27;20499;-55
2023/06/26 05:57:59;;;;;;;11.93;10.53;;;23.20;99.90;;;;;;5133995;27;20476;-55
2023/06/26 06:00:27;;;;;;;12.33;11.13;;;23.20;99.90;;;;;;5139602;27;21004;-58
2023/06/26 06:02:56;;;;;;;12.23;10.97;;;23.30;99.90;;;;;;5139271;27;20457;-58
2023/06/26 06:05:24;;;;;;;11.80;10.30;;;23.20;99.90;;;;;;5141023;27;20475;-58
2023/06/26 06:07:51;;;;;;;10.10;8.00;;;23.40;99.90;;;;;;5135498;27;20435;-57
2023/06/26 06:10:19;;;;;;;8.83;7.93;;;;;;;;;;5137674;27;20468;-55
2023/06/26 06:12:46;;;;;;;10.03;8.80;;;;;;;;;;5143464;27;20450;-57
2023/06/26 06:15:13;;;;;;;10.10;8.77;;;;;;;;;;5139375;27;20483;-59
2023/06/26 06:17:40;;;;;;;9.70;8.70;;;;;;;;;;5140342;27;20479;-58
2023/06/26 06:20:10;;;;;;;11.13;9.07;;;23.10;99.90;;;;;;5148835;27;20451;-56
2023/06/26 06:22:37;;;;;;;10.50;8.53;;;;;;;;;;5131314;28;20499;-56
2023/06/26 06:25:04;;;;;;;11.13;9.17;;;23.40;99.90;;;;;;5130352;28;20505;-59
2023/06/26 06:27:31;;;;;;;11.67;8.33;;;;;;;;;;5132022;27;20471;-57
2023/06/26 06:29:58;;;;;;;13.93;8.20;;;23.40;99.90;;;;;;5137456;27;20491;-57
2023/06/26 06:32:25;;;;;;;8.70;7.80;;;;;;;;;;5138025;27;20488;-57
2023/06/26 06:34:52;;;;;;;9.87;8.13;;;24.10;99.90;;;;;;5136601;27;20472;-54
2023/06/26 06:37:20;;;;;;;12.33;8.37;;;23.70;99.90;;;;;;5144295;27;20475;-49
2023/06/26 06:39:47;;;;;;;10.73;8.97;;;23.90;99.90;;;;;;5139097;27;20475;-55
2023/06/26 06:42:14;;;;;;;9.37;7.27;;;24.60;99.90;;;;;;5124211;27;20448;-54
2023/06/26 06:44:41;;;;;;;11.97;8.90;;;24.40;99.90;;;;;;5135209;27;20492;-52
2023/06/26 06:47:08;;;;;;;9.43;8.13;;;24.00;99.90;;;;;;5149032;27;20897;-51
2023/06/26 06:49:35;;;;;;;9.10;7.40;;;24.30;99.90;;;;;;5153667;27;20439;-56
2023/06/26 06:52:02;;;;;;;7.93;6.87;;;;;;;;;;5146658;27;20468;-53
2023/06/26 06:54:30;;;;;;;8.27;7.30;;;24.40;99.90;;;;;;5134134;27;20421;-56
2023/06/26 06:56:57;;;;;;;9.50;7.37;;;;;;;;;;5142248;27;20475;-56
2023/06/26 06:59:24;;;;;;;8.27;7.50;;;24.30;99.90;;;;;;5141673;27;20479;-49
2023/06/26 07:01:51;;;;;;;6.63;6.00;;;;;;;;;;5143915;27;20449;-52
2023/06/26 07:04:18;;;;;;;7.97;7.10;;;24.90;99.90;;;;;;5144742;27;20470;-53
2023/06/26 07:06:45;;;;;;;8.87;7.50;;;25.20;99.90;;;;;;5152008;27;20432;-53
2023/06/26 07:09:12;;;;;;;8.63;7.73;;;25.00;99.90;;;;;;5154872;27;20480;-56
2023/06/26 07:11:40;;;;;;;9.37;7.60;;;25.20;99.90;;;;;;5140132;27;20471;-54
2023/06/26 07:14:07;;;;;;;9.63;6.80;;;25.40;99.90;;;;;;5138489;27;20463;-57
2023/06/26 07:16:36;;;;;;;9.60;7.00;;;;;;;;;;5145271;27;20463;-54
2023/06/26 07:19:03;;;;;;;8.70;7.17;;;26.30;99.90;;;;;;5145542;27;20423;-56
2023/06/26 07:21:30;;;;;;;7.60;6.20;;;27.90;99.90;;;;;;5141981;27;20435;-59
2023/06/26 07:23:59;;;;;;;7.43;6.60;;;29.40;99.90;;;;;;5144391;27;20499;-59
2023/06/26 07:26:26;;;;;;;7.30;6.60;;;30.50;99.90;;;;;;5144204;27;20447;-53
2023/06/26 07:28:56;;;;;;;6.07;5.47;;;32.30;99.90;;;;;;5153340;27;20436;-58
2023/06/26 07:31:23;;;;;;;7.00;6.30;;;;;;;;;;5133974;27;20475;-58
2023/06/26 07:33:50;;;;;;;7.93;5.27;;;;;;;;;;5129311;28;20476;-54
2023/06/26 07:36:17;;;;;;;7.23;6.00;;;35.70;98.60;;;;;;5132789;28;20480;-57
2023/06/26 07:38:44;;;;;;;7.27;6.30;;;36.30;98.70;;;;;;5125537;28;20449;-58
2023/06/26 07:41:11;;;;;;;6.33;5.73;;;37.40;92.80;;;;;;5126438;28;20457;-58
2023/06/26 07:43:38;;;;;;;8.03;5.87;;;37.80;94.40;;;;;;5129960;28;20499;-59
2023/06/26 07:46:06;;;;;;;6.73;6.13;;;38.10;83.60;;;;;;5122801;28;20929;-59
2023/06/26 07:48:33;;;;;;;6.40;5.90;;;38.20;93.40;;;;;;5124027;28;20476;-58
2023/06/26 07:51:00;;;;;;;6.47;5.87;;;38.00;91.30;;;;;;5126730;28;20503;-58
2023/06/26 07:53:27;;;;;;;8.30;6.03;;;38.30;87.20;;;;;;5131204;28;20473;-55
2023/06/26 07:55:54;;;;;;;6.13;5.43;;;;;;;;;;5132590;28;20496;-56
2023/06/26 07:58:22;;;;;;;5.73;4.83;;;;;;;;;;5130150;28;20433;-56
2023/06/26 08:00:49;;;;;;;5.10;4.70;;;;;;;;;;5131877;28;20463;-58
2023/06/26 08:03:17;;;;;;;5.30;4.80;;;38.50;53.80;;;;;;5129622;28;20472;-57
2023/06/26 08:05:44;;;;;;;7.00;5.50;;;;;;;;;;5120776;28;20462;-59
2023/06/26 08:08:18;;;;;;;9.90;5.00;;;38.00;51.20;;;;;;5128061;28;20476;-58
2023/06/26 08:10:49;;;;;;;5.00;4.50;;;39.40;50.00;;;;;;5131504;28;20524;-58
2023/06/26 08:13:16;;;;;;;6.00;5.37;;;39.80;77.90;;;;;;5128529;28;20470;-59
2023/06/26 08:15:43;;;;;;;8.00;7.20;;;;;;;;;;5130509;28;20484;-59
2023/06/26 08:18:10;;;;;;;5.50;5.00;;;;;;;;;;5130900;28;20468;-58
2023/06/26 08:20:39;;;;;;;5.43;4.93;;;39.60;85.50;;;;;;5131750;28;20444;-59
2023/06/26 08:23:06;;;;;;;6.20;4.27;;;;;;;;;;5125142;28;20478;-58
2023/06/26 08:25:33;;;;;;;6.20;4.90;;;;;;;;;;5126714;28;20453;-58
2023/06/26 08:28:01;;;;;;;5.23;4.40;;;;;;;;;;5131613;28;20512;-58
2023/06/26 08:30:28;;;;;;;5.40;4.90;;;;;;;;;;5140923;27;20499;-56
2023/06/26 08:32:55;;;;;;;6.00;4.63;;;;;;;;;;5148219;27;20424;-57
2023/06/26 08:35:22;;;;;;;5.20;4.70;;;;;;;;;;5145869;27;20554;-58
2023/06/26 08:37:51;;;;;;;10.50;4.27;;;40.10;45.90;;;;;;5149331;27;20459;-58
2023/06/26 08:40:19;;;;;;;5.57;4.80;;;39.90;46.00;;;;;;5146117;27;20451;-58
2023/06/26 08:42:46;;;;;;;4.07;3.67;;;;;;;;;;5148179;27;20447;-55
2023/06/26 08:45:13;;;;;;;6.30;4.30;;;;;;;;;;5151889;27;20482;-58
2023/06/26 08:47:42;;;;;;;5.40;4.37;;;40.20;80.90;;;;;;5150276;27;20469;-55
2023/06/26 08:50:11;;;;;;;4.63;4.23;;;40.20;51.90;;;;;;5156799;27;20512;-58
2023/06/26 08:52:43;;;;;;;4.50;4.10;;;40.30;76.70;;;;;;5157330;27;20517;-57
2023/06/26 08:55:14;;;;;;;3.30;3.00;;;40.10;68.50;;;;;;5148347;27;20551;-59
2023/06/26 08:57:41;;;;;;;3.70;3.40;;;40.50;78.20;;;;;;5154234;27;20472;-56
2023/06/26 09:00:09;;;;;;;8.87;4.43;;;39.70;69.80;;;;;;5153238;27;20443;-55
2023/06/26 09:02:37;;;;;;;4.50;4.10;;;40.20;43.80;;;;;;5154488;27;20495;-56
2023/06/26 09:05:04;;;;;;;5.23;4.70;;;40.10;69.30;;;;;;5148028;27;20507;-57
2023/06/26 09:07:34;;;;;;;3.77;3.47;;;40.30;76.10;;;;;;5146899;27;20451;-57
2023/06/26 09:10:01;;;;;;;4.60;4.13;;;40.30;77.10;;;;;;5145714;27;20517;-59
2023/06/26 09:12:29;;;;;;;4.60;4.20;;;40.30;78.30;;;;;;5146948;27;20484;-57
2023/06/26 09:14:57;;;;;;;6.00;4.07;;;40.10;69.90;;;;;;5153713;27;20479;-58
2023/06/26 09:17:26;;;;;;;5.53;4.17;;;40.00;77.20;;;;;;5147195;27;20487;-55
2023/06/26 09:19:53;;;;;;;4.83;3.90;;;;;;;;;;5152989;27;20446;-59
2023/06/26 09:22:22;;;;;;;7.73;5.20;;;40.20;52.50;;;;;;5145565;27;20475;-59
2023/06/26 09:24:49;;;;;;;4.93;4.53;;;40.40;69.80;;;;;;5145015;27;20464;-58
2023/06/26 09:27:18;;;;;;;6.10;4.50;;;40.50;67.90;;;;;;5146390;27;20527;-59
2023/06/26 09:29:47;;;;;;;4.80;4.10;;;40.50;41.90;;;;;;5145852;27;20479;-58
2023/06/26 09:32:15;;;;;;;5.80;4.00;;;40.80;55.20;;;;;;5137658;27;20440;-57
2023/06/26 09:34:43;;;;;;;5.33;4.77;;;40.20;67.80;;;;;;5132278;28;20452;-60
2023/06/26 09:37:13;;;;;;;6.20;5.60;;;40.10;76.20;;;;;;5125844;28;20464;-61
2023/06/26 09:39:40;;;;;;;4.93;4.53;;;40.20;69.20;;;;;;5131859;28;20453;-57
2023/06/26 09:42:07;;;;;;;5.10;4.33;;;40.20;75.80;;;;;;5132807;28;20451;-59
2023/06/26 09:44:34;;;;;;;4.70;4.30;;;40.20;76.90;;;;;;5128265;28;20483;-59
2023/06/26 09:47:04;;;;;;;4.30;4.00;;;40.20;74.00;;;;;;5122971;28;20472;-59
2023/06/26 09:49:32;;;;;;;5.47;4.97;;;40.10;55.60;;;;;;5130441;28;20463;-59
2023/06/26 09:52:02;;;;;;;5.07;4.67;;;40.20;69.00;;;;;;5132865;28;20508;-58
2023/06/26 09:54:30;;;;;;;4.67;4.27;;;40.10;77.10;;;;;;5134876;28;20464;-56
2023/06/26 09:57:07;;;;;;;4.10;3.80;;;39.90;68.00;;;;;;5122948;28;20484;-59
2023/06/26 09:59:35;;;;;;;5.03;4.30;;;39.80;68.70;;;;;;5123712;28;20831;-58
2023/06/26 10:02:04;;;;;;;4.40;4.00;;;;;;;;;;5129947;27;20454;-59
2023/06/26 10:04:30;;;;;;;4.47;4.07;;;39.90;50.50;;;;;;5153927;27;20942;-59
2023/06/26 10:07:02;;;;;;;4.90;4.40;;;39.80;74.20;;;;;;5154373;27;20443;-59
2023/06/26 10:09:30;;;;;;;6.00;4.70;;;39.80;72.00;;;;;;5149023;27;20520;-55
2023/06/26 10:11:59;;;;;;;9.13;4.30;;;39.60;80.00;;;;;;5144174;27;20523;-60
2023/06/26 10:14:28;;;;;;;5.27;4.13;;;39.60;43.90;;;;;;5146397;27;20447;-60
2023/06/26 10:16:59;;;;;;;11.03;5.53;;;39.90;79.10;;;;;;5148291;27;20483;-58
2023/06/26 10:19:29;;;;;;;4.70;4.30;;;39.60;78.90;;;;;;5149384;27;20435;-57
2023/06/26 10:21:57;;;;;;;4.60;4.20;;;39.50;77.30;;;;;;5151385;27;20471;-60
2023/06/26 10:24:25;;;;;;;5.63;4.63;;;39.40;69.70;;;;;;5151132;27;20501;-58
2023/06/26 10:27:04;;;;;;;4.80;4.30;;;39.30;51.20;;;;;;5149364;27;20598;-56
2023/06/26 10:29:32;;;;;;;4.13;3.70;;;;;;;;;;5150059;27;20499;-59
2023/06/26 10:32:01;;;;;;;3.80;3.47;;;38.70;70.50;;;;;;5127301;27;20527;-59
2023/06/26 10:34:29;;;;;;;4.07;3.50;;;38.20;71.50;;;;;;5120902;28;20789;-60
2023/06/26 10:37:04;;;;;;;3.90;3.43;;;37.80;48.20;;;;;;5120099;28;20571;-59
2023/06/26 10:39:48;;;;;;;3.63;3.33;;;37.60;77.80;;;;;;5119649;28;20458;-59
2023/06/26 10:42:16;;;;;;;4.20;3.80;;;37.10;73.50;;;;;;5119974;28;20464;-59
2023/06/26 10:44:44;;;;;;;5.90;4.37;;;;;;;;;;5125914;28;20475;-59
2023/06/26 10:47:11;;;;;;;5.77;4.80;;;;;;;;;;5126160;28;20433;-59
2023/06/26 10:49:42;;;;;;;12.63;4.53;;;35.90;76.20;;;;;;5125739;28;20492;-60
2023/06/26 10:52:09;;;;;;;7.83;3.63;;;35.90;78.20;;;;;;5125870;28;20435;-60
2023/06/26 10:54:38;;;;;;;4.53;4.13;;;35.70;49.60;;;;;;5125283;28;20504;-59
2023/06/26 10:57:08;;;;;;;3.90;3.47;;;35.50;49.60;;;;;;5125601;28;20837;-60
2023/06/26 10:59:35;;;;;;;3.80;3.40;;;35.50;79.00;;;;;;5126399;28;20468;-60
2023/06/26 11:02:03;;;;;;;5.17;4.40;;;;;;;;;;5144016;27;20769;-61
2023/06/26 11:04:44;;;;;;;6.03;4.07;;;35.50;51.30;;;;;;5144488;27;20459;-62
2023/06/26 11:07:22;;;;;;;4.90;4.37;;;35.30;80.30;;;;;;5144116;27;20545;-61
2023/06/26 11:09:56;;;;;;;4.40;3.77;;;;;;;;;;5146439;27;20447;-58
2023/06/26 11:12:37;;;;;;;4.90;4.10;;;35.30;88.30;;;;;;5142934;27;20443;-60
2023/06/26 11:15:04;;;;;;;4.50;4.10;;;35.00;82.10;;;;;;5143592;27;20511;-60
2023/06/26 11:17:31;;;;;;;5.53;3.87;;;;;;;;;;5139812;27;20507;-60
2023/06/26 11:20:00;;;;;;;5.60;4.93;;;34.70;91.00;;;;;;5144953;27;20496;-60
2023/06/26 11:22:28;;;;;;;4.93;3.90;;;34.50;53.50;;;;;;5145271;27;20440;-60
2023/06/26 11:24:55;;;;;;;4.27;3.70;;;34.40;81.50;;;;;;5145721;27;20476;-58
2023/06/26 11:27:24;;;;;;;6.57;4.40;;;34.40;83.10;;;;;;5147395;27;20444;-58
2023/06/26 11:29:53;;;;;;;6.87;4.50;;;34.50;54.10;;;;;;5147368;27;20447;-61
2023/06/26 11:32:20;;;;;;;4.50;4.10;;;;;;;;;;5123432;28;20503;-57
2023/06/26 11:34:49;;;;;;;4.97;4.30;;;34.60;52.70;;;;;;5124899;28;20998;-57
2023/06/26 11:37:20;;;;;;;5.30;4.33;;;34.70;53.10;;;;;;5124629;28;20487;-57
2023/06/26 11:39:47;;;;;;;4.87;4.07;;;;;;;;;;5125529;28;20450;-62
2023/06/26 11:42:14;;;;;;;6.77;5.00;;;;;;;;;;5122027;28;20504;-61
2023/06/26 11:44:43;;;;;;;5.43;4.27;;;34.90;53.30;;;;;;5125869;28;20504;-60
2023/06/26 11:47:14;;;;;;;4.73;4.27;;;34.40;82.50;;;;;;5124123;28;20551;-59
2023/06/26 11:49:43;;;;;;;6.17;4.20;;;34.00;81.80;;;;;;5125168;28;20500;-57
2023/06/26 11:52:10;;;;;;;4.60;3.80;;;;;;;;;;5122413;28;20460;-58
2023/06/26 11:54:39;;;;;;;5.00;4.60;;;33.80;83.50;;;;;;5118241;28;20539;-58
2023/06/26 11:57:09;;;;;;;5.10;4.60;;;33.80;54.90;;;;;;5119083;28;20476;-59
2023/06/26 11:59:37;;;;;;;4.57;4.00;;;33.50;52.80;;;;;;5121978;28;20498;-59
2023/06/26 12:02:07;;;;;;;4.67;4.20;;;;;;;;;;5142594;27;20491;-59
2023/06/26 12:04:35;;;;;;;6.50;4.60;;;;;;;;;;5143488;27;20431;-58
2023/06/26 12:07:04;;;;;;;4.57;4.17;;;32.90;91.20;;;;;;5148543;27;21142;-58
2023/06/26 12:09:33;;;;;;;5.30;4.43;;;;;;;;;;5151171;27;20487;-56
2023/06/26 12:12:03;;;;;;;5.07;4.57;;;33.20;91.60;;;;;;5151356;27;20469;-57
2023/06/26 12:14:31;;;;;;;4.30;3.87;;;33.00;88.80;;;;;;5150414;27;20486;-55
2023/06/26 12:17:06;;;;;;;4.43;4.03;;;33.00;85.50;;;;;;5149712;27;20505;-59
2023/06/26 12:19:33;;;;;;;4.57;4.03;;;;;;;;;;5151171;27;20459;-57
2023/06/26 12:22:00;;;;;;;4.77;4.20;;;;;;;;;;5146229;27;20476;-58
2023/06/26 12:24:27;;;;;;;6.10;4.30;;;;;;;;;;5143839;27;20443;-59
2023/06/26 12:26:56;;;;;;;7.60;4.83;;;32.80;91.40;;;;;;5142911;27;20459;-59
2023/06/26 12:29:33;;;;;;;4.30;4.00;;;32.80;86.00;;;;;;5143821;27;20431;-59
2023/06/26 12:32:00;;;;;;;6.53;4.80;;;;;;;;;;5133967;27;20478;-58
2023/06/26 12:34:29;;;;;;;5.17;4.70;;;32.50;56.50;;;;;;5129834;28;20449;-59
2023/06/26 12:37:01;;;;;;;4.80;4.20;;;32.50;56.70;;;;;;5129535;28;20518;-58
2023/06/26 12:39:28;;;;;;;6.87;4.70;;;32.50;93.00;;;;;;5125892;28;20496;-58
2023/06/26 12:41:58;;;;;;;11.80;9.27;;;32.70;57.40;;;;;;5130230;28;20444;-58
2023/06/26 12:44:29;;;;;;;8.23;6.87;;;32.80;89.00;;;;;;5132582;28;20529;-56
2023/06/26 12:46:58;;;;;;;6.10;5.20;;;32.80;57.30;;;;;;5131370;28;20468;-55
2023/06/26 12:49:33;;;;;;;6.70;5.43;;;33.00;53.50;;;;;;5132110;28;20441;-58
2023/06/26 12:52:01;;;;;;;5.10;4.60;;;32.90;86.50;;;;;;5127263;28;20471;-60
2023/06/26 12:54:28;;;;;;;8.70;5.33;;;33.00;86.70;;;;;;5129214;28;20513;-60
2023/06/26 12:56:55;;;;;;;7.73;5.63;;;32.70;92.20;;;;;;5130005;28;21054;-58
2023/06/26 12:59:22;;;;;;;6.40;4.80;;;32.90;93.10;;;;;;5127663;28;20484;-58
2023/06/26 13:01:51;;;;;;;5.50;4.63;;;;;;;;;;5131575;28;20455;-57
2023/06/26 13:04:18;;;;;;;6.17;5.47;;;33.10;88.30;;;;;;5128467;28;20460;-58
2023/06/26 13:06:45;;;;;;;6.20;5.60;;;33.00;89.00;;;;;;5132773;28;20468;-58
2023/06/26 13:09:12;;;;;;;8.63;4.87;;;;;;;;;;5131129;28;20468;-58
2023/06/26 13:11:39;;;;;;;6.00;5.40;;;;;;;;;;5123968;28;20528;-59
2023/06/26 13:14:07;;;;;;;5.40;4.90;;;;;;;;;;5121799;28;20452;-59
2023/06/26 13:16:35;;;;;;;6.10;5.50;;;32.50;58.00;;;;;;5126819;28;21045;-61
2023/06/26 13:19:03;;;;;;;8.07;5.00;;;32.30;88.30;;;;;;5126931;28;20822;-56
2023/06/26 13:21:30;;;;;;;7.10;6.17;;;32.10;92.00;;;;;;5128413;28;20496;-58